Time;durP1;ratioP1;P1;durP2;ratioP2;P2;SDS_P1;SDS_P2;PMS_P1;PMS_P2;Temp;Humidity;BMP_temperature;BMP_pressure;BME280_temperature;BME280_humidity;BME280_pressure;Samples;Min_cycle;Max_cycle;Signal;HPM_P1;HPM_P2
2022/07/14 00:00:52;;;;;;;13.05;3.03;;;14.20;99.90;;;;;;5017443;28;20085;-66
2022/07/14 00:03:18;;;;;;;8.18;2.35;;;14.40;99.90;;;;;;4994393;28;20056;-65
2022/07/14 00:05:43;;;;;;;7.85;2.65;;;14.30;99.90;;;;;;4995498;28;20400;-65
2022/07/14 00:08:09;;;;;;;9.45;2.08;;;14.20;99.90;;;;;;5006626;28;20559;-65
2022/07/14 00:10:34;;;;;;;9.65;2.38;;;14.30;99.90;;;;;;5010106;28;20046;-65
2022/07/14 00:13:00;;;;;;;7.80;2.78;;;14.30;99.90;;;;;;4995488;28;20045;-65
2022/07/14 00:15:26;;;;;;;7.72;2.67;;;14.50;99.90;;;;;;4995659;28;20489;-65
2022/07/14 00:17:52;;;;;;;13.02;2.53;;;14.30;99.90;;;;;;5000018;28;20038;-65
2022/07/14 00:20:18;;;;;;;17.23;3.00;;;14.60;99.90;;;;;;5016686;28;20515;-65
2022/07/14 00:22:44;;;;;;;10.02;2.97;;;14.20;99.90;;;;;;5022312;28;20049;-65
2022/07/14 00:25:10;;;;;;;9.32;2.90;;;14.20;99.90;;;;;;5021757;28;20038;-64
2022/07/14 00:27:36;;;;;;;11.65;2.70;;;14.40;99.90;;;;;;4995230;28;20035;-64
2022/07/14 00:30:03;;;;;;;14.05;3.30;;;14.40;99.90;;;;;;5002850;28;20422;-64
2022/07/14 00:32:29;;;;;;;6.22;1.60;;;14.30;99.90;;;;;;5034675;28;20049;-64
2022/07/14 00:34:57;;;;;;;5.85;1.70;;;14.40;99.90;;;;;;4999915;28;20034;-64
2022/07/14 00:37:22;;;;;;;4.55;1.90;;;13.90;99.90;;;;;;5009760;28;20419;-65
2022/07/14 00:39:57;;;;;;;3.95;1.27;;;13.90;99.90;;;;;;5023237;28;20053;-64
2022/07/14 00:42:40;;;;;;;4.05;1.80;;;13.90;99.90;;;;;;5013221;28;20488;-64
2022/07/14 00:45:11;;;;;;;7.20;2.35;;;13.70;99.90;;;;;;5000784;28;20038;-64
2022/07/14 00:47:37;;;;;;;7.03;2.97;;;13.50;99.90;;;;;;5008760;28;20073;-65
2022/07/14 00:50:05;;;;;;;9.35;2.60;;;13.40;99.90;;;;;;5025416;28;20515;-64
2022/07/14 00:52:31;;;;;;;7.45;2.65;;;13.60;99.90;;;;;;5018740;28;20045;-64
2022/07/14 00:54:57;;;;;;;10.77;2.92;;;13.50;99.90;;;;;;5013784;28;20045;-64
2022/07/14 00:57:24;;;;;;;10.38;2.70;;;13.50;99.90;;;;;;5008354;28;20038;-64
2022/07/14 00:59:49;;;;;;;6.95;2.28;;;13.50;99.90;;;;;;4993407;28;20034;-64
2022/07/14 01:02:17;;;;;;;11.18;3.05;;;13.40;99.90;;;;;;5006522;28;20097;-65
2022/07/14 01:04:45;;;;;;;10.90;2.92;;;13.40;99.90;;;;;;4994359;28;20096;-65
2022/07/14 01:07:12;;;;;;;6.35;2.22;;;13.20;99.90;;;;;;5006610;28;20492;-64
2022/07/14 01:09:38;;;;;;;4.60;2.10;;;13.30;99.90;;;;;;5027846;28;20489;-64
2022/07/14 01:12:04;;;;;;;6.38;2.33;;;13.30;99.90;;;;;;5003511;28;20042;-64
2022/07/14 01:14:29;;;;;;;8.93;2.58;;;13.30;99.90;;;;;;5021957;28;20033;-65
2022/07/14 01:16:56;;;;;;;7.78;2.63;;;13.40;99.90;;;;;;5008882;28;20473;-64
2022/07/14 01:19:23;;;;;;;7.43;3.00;;;13.30;99.90;;;;;;5013527;28;20485;-64
2022/07/14 01:21:55;;;;;;;8.70;2.95;;;13.40;99.90;;;;;;5015865;28;20496;-64
2022/07/14 01:24:25;;;;;;;9.57;2.80;;;13.50;99.90;;;;;;5012723;28;20408;-64
2022/07/14 01:26:51;;;;;;;6.38;2.80;;;13.50;99.90;;;;;;5020774;28;20164;-66
2022/07/14 01:29:17;;;;;;;6.13;2.40;;;13.30;99.90;;;;;;5032835;28;20034;-66
2022/07/14 01:31:43;;;;;;;9.00;2.75;;;13.30;99.90;;;;;;5018291;28;20045;-65
2022/07/14 01:34:09;;;;;;;5.53;2.28;;;13.30;99.90;;;;;;5019743;28;20132;-65
2022/07/14 01:36:35;;;;;;;5.35;2.65;;;13.50;99.90;;;;;;5031464;28;20037;-65
2022/07/14 01:39:01;;;;;;;4.85;2.28;;;13.10;99.90;;;;;;5033340;28;20227;-65
2022/07/14 01:41:27;;;;;;;8.68;3.00;;;13.10;99.90;;;;;;5030963;28;20088;-65
2022/07/14 01:43:53;;;;;;;8.68;2.78;;;13.10;99.90;;;;;;5020186;28;20044;-65
2022/07/14 01:46:19;;;;;;;5.20;1.95;;;13.20;99.90;;;;;;5023315;28;20129;-65
2022/07/14 01:48:45;;;;;;;6.95;2.67;;;12.80;99.90;;;;;;5018522;28;20112;-65
2022/07/14 01:51:11;;;;;;;8.80;2.95;;;13.30;99.90;;;;;;5019887;28;20045;-65
2022/07/14 01:53:36;;;;;;;4.97;2.63;;;12.90;99.90;;;;;;5029624;28;20044;-65
2022/07/14 01:56:02;;;;;;;7.68;2.15;;;12.80;99.90;;;;;;5032802;28;20029;-65
2022/07/14 01:58:27;;;;;;;9.73;2.50;;;12.80;99.90;;;;;;5032263;28;20099;-65
2022/07/14 02:03:38;;;;;;;7.43;2.90;;;13.00;99.90;;;;;;5019087;28;20050;-65
2022/07/14 02:06:04;;;;;;;6.63;2.67;;;13.00;99.90;;;;;;5032994;28;20048;-67
2022/07/14 02:08:29;;;;;;;10.18;2.88;;;13.10;99.90;;;;;;5032794;28;20064;-67
2022/07/14 02:13:39;;;;;;;8.48;3.33;;;12.80;99.90;;;;;;5027712;28;20046;-67
2022/07/14 02:16:05;;;;;;;9.55;3.17;;;12.70;99.90;;;;;;5032752;28;20034;-67
2022/07/14 02:18:31;;;;;;;9.05;3.08;;;12.70;99.90;;;;;;5031369;28;20043;-65
2022/07/14 02:20:56;;;;;;;9.35;2.67;;;12.80;99.90;;;;;;5032462;28;20053;-65
2022/07/14 02:23:23;;;;;;;8.45;2.67;;;12.60;99.90;;;;;;5032514;28;20120;-64
2022/07/14 02:25:49;;;;;;;7.45;2.67;;;12.60;99.90;;;;;;5015215;28;20046;-65
2022/07/14 02:28:15;;;;;;;12.77;3.95;;;12.70;99.90;;;;;;5019408;28;20373;-64
2022/07/14 02:30:41;;;;;;;8.50;3.08;;;12.60;99.90;;;;;;5032676;28;20056;-64
2022/07/14 02:33:07;;;;;;;5.25;2.35;;;12.90;99.90;;;;;;5032433;28;20045;-64
2022/07/14 02:35:33;;;;;;;6.82;2.70;;;12.80;99.90;;;;;;5020595;28;20050;-64
2022/07/14 02:37:59;;;;;;;7.18;2.80;;;12.60;99.90;;;;;;5030314;28;20052;-64
2022/07/14 02:40:25;;;;;;;8.77;2.92;;;12.50;99.90;;;;;;5031944;28;20061;-65
2022/07/14 02:42:50;;;;;;;9.75;3.10;;;12.60;99.90;;;;;;5016924;28;20556;-64
2022/07/14 02:45:16;;;;;;;4.45;1.58;;;12.20;99.90;;;;;;5032279;28;20073;-64
2022/07/14 02:47:42;;;;;;;3.22;1.88;;;12.10;99.90;;;;;;5029455;28;20120;-65
2022/07/14 02:50:10;;;;;;;4.90;1.88;;;12.10;99.90;;;;;;5036402;28;20026;-64
2022/07/14 02:52:36;;;;;;;2.78;1.73;;;;;;;;;;5024383;28;20042;-66
2022/07/14 02:55:01;;;;;;;1.60;1.40;;;12.20;99.90;;;;;;5029098;28;20050;-64
2022/07/14 02:57:27;;;;;;;3.80;2.35;;;12.10;99.90;;;;;;5026580;28;20045;-64
2022/07/14 02:59:52;;;;;;;4.28;2.42;;;12.10;99.90;;;;;;5051632;28;20080;-64
2022/07/14 03:02:19;;;;;;;3.28;1.63;;;11.90;99.90;;;;;;5034854;28;20077;-65
2022/07/14 03:04:44;;;;;;;7.80;3.25;;;11.80;99.90;;;;;;5036042;28;20518;-64
2022/07/14 03:07:10;;;;;;;7.63;3.25;;;;;;;;;;5035926;28;20037;-67
2022/07/14 03:09:36;;;;;;;8.88;2.25;;;11.70;99.90;;;;;;5035665;28;20033;-65
2022/07/14 03:12:01;;;;;;;4.95;2.10;;;11.60;99.90;;;;;;5034546;28;20180;-64
2022/07/14 03:14:27;;;;;;;9.57;2.78;;;11.80;99.90;;;;;;5035895;28;20041;-64
2022/07/14 03:16:52;;;;;;;5.45;1.90;;;11.60;99.90;;;;;;5035817;28;20515;-63
2022/07/14 03:19:18;;;;;;;6.78;2.53;;;11.70;99.90;;;;;;5035811;28;20131;-64
2022/07/14 03:21:43;;;;;;;9.65;3.00;;;11.70;99.90;;;;;;5021612;28;20038;-64
2022/07/14 03:24:09;;;;;;;7.63;2.75;;;11.70;99.90;;;;;;5033188;28;20487;-64
2022/07/14 03:26:35;;;;;;;10.07;3.20;;;11.70;99.90;;;;;;5023689;28;20491;-64
2022/07/14 03:29:02;;;;;;;6.85;2.75;;;11.90;99.90;;;;;;5031477;28;20038;-64
2022/07/14 03:31:28;;;;;;;6.00;2.55;;;11.90;99.90;;;;;;5029242;28;20404;-64
2022/07/14 03:33:53;;;;;;;7.60;2.50;;;11.80;99.90;;;;;;5023726;28;20030;-64
2022/07/14 03:36:22;;;;;;;7.10;2.58;;;11.90;99.90;;;;;;5019899;28;20037;-64
2022/07/14 03:38:48;;;;;;;6.63;2.50;;;11.90;99.90;;;;;;5035018;28;20125;-64
2022/07/14 03:41:14;;;;;;;6.82;3.65;;;11.90;99.90;;;;;;5034981;28;20128;-63
2022/07/14 03:43:39;;;;;;;4.95;2.20;;;11.80;99.90;;;;;;5025439;28;20049;-63
2022/07/14 03:46:06;;;;;;;1.75;1.40;;;11.70;99.90;;;;;;5023080;28;20085;-64
2022/07/14 03:48:33;;;;;;;4.40;2.10;;;11.90;99.90;;;;;;5033974;28;20041;-64
2022/07/14 03:50:59;;;;;;;9.80;3.35;;;11.80;99.90;;;;;;5035131;28;20044;-64
2022/07/14 03:53:25;;;;;;;5.93;2.30;;;11.90;99.90;;;;;;5028806;28;20068;-64
2022/07/14 03:55:51;;;;;;;3.50;2.10;;;11.80;99.90;;;;;;5013841;28;20067;-64
2022/07/14 03:58:17;;;;;;;2.55;1.95;;;11.70;99.90;;;;;;5030815;28;20480;-68
2022/07/14 04:00:42;;;;;;;3.35;2.10;;;11.90;99.90;;;;;;5030155;28;20038;-67
2022/07/14 04:03:09;;;;;;;4.95;2.38;;;11.50;99.90;;;;;;5014837;28;20034;-67
2022/07/14 04:05:35;;;;;;;3.40;2.13;;;11.60;99.90;;;;;;5014890;28;20504;-67
2022/07/14 04:08:00;;;;;;;3.90;1.70;;;11.50;99.90;;;;;;5013467;28;20063;-67
2022/07/14 04:10:26;;;;;;;3.53;2.22;;;11.60;99.90;;;;;;5014736;28;20038;-67
2022/07/14 04:12:51;;;;;;;5.20;1.63;;;11.60;99.90;;;;;;5014151;28;20041;-69
2022/07/14 04:15:17;;;;;;;3.00;1.98;;;11.50;99.90;;;;;;5015051;28;20092;-69
2022/07/14 04:17:43;;;;;;;4.45;2.28;;;11.80;99.90;;;;;;5013827;28;20050;-69
2022/07/14 04:20:09;;;;;;;5.57;2.50;;;11.50;99.90;;;;;;5014997;28;20041;-69
2022/07/14 04:22:35;;;;;;;4.47;2.17;;;11.50;99.90;;;;;;5014017;28;20042;-69
2022/07/14 04:25:00;;;;;;;2.40;1.52;;;11.60;99.90;;;;;;5013652;28;20042;-69
2022/07/14 04:27:26;;;;;;;4.28;1.70;;;11.70;99.90;;;;;;5016607;28;20042;-67
2022/07/14 04:29:52;;;;;;;2.00;1.10;;;11.50;99.90;;;;;;5014205;28;20073;-68
2022/07/14 04:32:18;;;;;;;3.60;1.67;;;11.70;99.90;;;;;;5017248;28;20045;-67
2022/07/14 04:34:44;;;;;;;4.13;1.75;;;11.70;99.90;;;;;;5016551;28;20033;-67
2022/07/14 04:37:11;;;;;;;3.53;1.48;;;11.90;99.90;;;;;;5022101;28;20042;-67
2022/07/14 04:39:36;;;;;;;5.43;1.75;;;11.60;99.90;;;;;;5014481;28;20165;-67
2022/07/14 04:42:03;;;;;;;3.60;1.20;;;12.00;99.90;;;;;;5017221;28;20439;-67
2022/07/14 04:44:29;;;;;;;5.30;1.40;;;11.80;99.90;;;;;;5016088;28;20034;-66
2022/07/14 04:46:54;;;;;;;5.28;1.98;;;11.80;99.90;;;;;;5014160;28;20489;-67
2022/07/14 04:52:05;;;;;;;7.03;2.90;;;12.00;99.90;;;;;;5008585;28;20042;-64
2022/07/14 04:54:33;;;;;;;7.97;3.03;;;12.10;99.90;;;;;;5012654;28;20439;-64
2022/07/14 04:57:00;;;;;;;5.35;3.42;;;12.30;99.90;;;;;;5007789;28;20124;-64
2022/07/14 04:59:26;;;;;;;7.95;3.35;;;12.60;99.90;;;;;;5018220;28;20046;-64
2022/07/14 05:01:52;;;;;;;10.68;3.30;;;12.80;99.90;;;;;;5011985;28;20046;-64
2022/07/14 05:04:18;;;;;;;7.38;3.50;;;13.10;99.90;;;;;;5020882;28;20044;-64
2022/07/14 05:06:46;;;;;;;6.72;3.60;;;13.50;99.90;;;;;;5013597;28;20724;-64
2022/07/14 05:09:13;;;;;;;6.75;2.80;;;14.10;99.90;;;;;;5011778;28;20129;-64
2022/07/14 05:11:40;;;;;;;5.57;2.53;;;14.20;99.90;;;;;;5013940;28;20084;-64
2022/07/14 05:14:06;;;;;;;5.70;2.67;;;15.10;99.90;;;;;;5013858;28;20038;-64
2022/07/14 05:16:31;;;;;;;7.75;2.88;;;15.20;99.90;;;;;;5013475;28;20046;-64
2022/07/14 05:18:57;;;;;;;5.97;2.50;;;15.70;99.90;;;;;;5012230;28;20041;-64
2022/07/14 05:21:23;;;;;;;7.57;2.58;;;16.00;99.90;;;;;;5013448;28;20404;-64
2022/07/14 05:23:49;;;;;;;5.00;2.38;;;15.50;99.90;;;;;;5012226;28;20459;-65
2022/07/14 05:26:14;;;;;;;6.93;3.03;;;16.70;99.90;;;;;;5013685;28;20030;-64
2022/07/14 05:28:40;;;;;;;4.25;2.53;;;16.70;99.90;;;;;;5023823;28;20049;-64
2022/07/14 05:31:06;;;;;;;7.38;3.03;;;16.50;99.90;;;;;;5017747;28;20064;-64
2022/07/14 05:33:33;;;;;;;6.35;3.25;;;16.40;99.90;;;;;;5022487;28;20088;-64
2022/07/14 05:35:58;;;;;;;8.20;3.40;;;16.60;99.90;;;;;;5027200;28;20539;-65
2022/07/14 05:38:24;;;;;;;7.43;2.67;;;16.30;99.90;;;;;;5012065;28;20121;-65
2022/07/14 05:40:50;;;;;;;7.00;3.00;;;16.20;99.90;;;;;;5013329;28;20073;-64
2022/07/14 05:43:16;;;;;;;11.38;2.75;;;16.20;99.90;;;;;;5018891;28;20103;-65
2022/07/14 05:45:42;;;;;;;10.93;2.75;;;16.20;99.90;;;;;;5020053;28;20041;-64
2022/07/14 05:48:07;;;;;;;8.20;2.28;;;16.20;99.90;;;;;;5011681;28;20037;-65
2022/07/14 05:50:33;;;;;;;7.90;2.75;;;16.30;99.90;;;;;;5012046;28;20046;-65
2022/07/14 05:52:58;;;;;;;6.57;2.30;;;16.20;99.90;;;;;;5012832;28;20046;-65
2022/07/14 05:55:24;;;;;;;4.95;2.35;;;16.40;99.90;;;;;;5020601;28;20430;-65
2022/07/14 05:57:51;;;;;;;6.57;2.05;;;16.70;99.90;;;;;;5031586;28;20037;-65
2022/07/14 06:00:16;;;;;;;7.95;2.70;;;16.70;99.90;;;;;;5018751;28;20033;-65
2022/07/14 06:02:42;;;;;;;6.88;2.30;;;17.00;99.90;;;;;;5031232;28;20501;-65
2022/07/14 06:05:08;;;;;;;7.32;2.30;;;17.50;99.90;;;;;;5017617;28;20034;-65
2022/07/14 06:07:34;;;;;;;9.10;2.20;;;17.80;99.90;;;;;;5022960;28;20435;-65
2022/07/14 06:10:01;;;;;;;8.80;1.90;;;18.00;99.90;;;;;;5014601;28;20065;-65
2022/07/14 06:12:27;;;;;;;7.47;2.03;;;18.10;99.90;;;;;;5040204;28;20050;-65
2022/07/14 06:14:53;;;;;;;10.15;3.03;;;18.30;99.90;;;;;;5010193;28;20064;-65
2022/07/14 06:17:18;;;;;;;6.85;2.33;;;18.30;99.90;;;;;;5026366;28;20041;-65
2022/07/14 06:19:44;;;;;;;7.43;2.33;;;18.20;99.90;;;;;;5011046;28;20049;-65
2022/07/14 06:22:09;;;;;;;8.30;2.05;;;18.40;99.90;;;;;;5028599;28;20502;-65
2022/07/14 06:24:39;;;;;;;6.22;1.83;;;18.60;99.90;;;;;;5022944;28;20092;-65
2022/07/14 06:27:05;;;;;;;11.73;1.88;;;18.80;99.90;;;;;;5024797;28;20046;-65
2022/07/14 06:29:30;;;;;;;7.68;1.88;;;18.90;99.90;;;;;;5030795;28;20099;-65
2022/07/14 06:31:56;;;;;;;6.43;1.50;;;19.20;99.90;;;;;;5022249;28;20077;-65
2022/07/14 06:34:23;;;;;;;9.40;1.60;;;19.60;99.90;;;;;;5028573;28;20064;-65
2022/07/14 06:36:48;;;;;;;6.93;1.38;;;19.50;99.90;;;;;;5032080;28;20567;-65
2022/07/14 06:39:14;;;;;;;5.22;1.30;;;19.80;99.90;;;;;;5031985;28;20125;-65
2022/07/14 06:41:41;;;;;;;4.45;0.90;;;19.80;99.90;;;;;;5025881;28;20116;-65
2022/07/14 06:44:07;;;;;;;7.53;1.40;;;19.90;99.90;;;;;;5024828;28;20045;-65
2022/07/14 06:46:33;;;;;;;8.70;1.10;;;20.10;99.90;;;;;;5016776;28;20033;-65
2022/07/14 06:48:59;;;;;;;4.63;0.45;;;20.00;99.90;;;;;;5030989;28;20510;-65
2022/07/14 06:51:25;;;;;;;5.00;0.70;;;19.70;99.90;;;;;;5032115;28;20045;-65
2022/07/14 06:53:51;;;;;;;7.20;1.17;;;19.50;99.90;;;;;;5032226;28;20071;-65
2022/07/14 06:56:17;;;;;;;7.55;1.42;;;19.00;99.90;;;;;;5031929;28;20116;-65
2022/07/14 06:58:42;;;;;;;4.45;1.40;;;19.10;99.90;;;;;;5024018;28;20041;-65
2022/07/14 07:01:08;;;;;;;7.40;1.10;;;19.20;99.90;;;;;;5012316;28;20045;-65
2022/07/14 07:03:33;;;;;;;8.05;1.42;;;19.00;99.90;;;;;;5029441;28;20045;-65
2022/07/14 07:08:43;;;;;;;10.68;1.52;;;18.70;99.90;;;;;;5013043;28;20037;-65
2022/07/14 07:11:09;;;;;;;3.85;1.38;;;18.70;99.90;;;;;;5010834;28;20038;-65
2022/07/14 07:13:37;;;;;;;2.85;1.00;;;18.90;99.90;;;;;;5027702;28;20042;-65
2022/07/14 07:16:06;;;;;;;5.80;1.00;;;18.80;99.90;;;;;;5012264;28;20096;-65
2022/07/14 07:18:32;;;;;;;5.70;1.63;;;18.60;99.90;;;;;;5026467;28;20045;-65
2022/07/14 07:20:58;;;;;;;7.03;1.05;;;18.70;99.90;;;;;;5030842;28;20399;-65
2022/07/14 07:23:24;;;;;;;8.35;0.88;;;18.70;99.90;;;;;;5018226;28;20046;-65
2022/07/14 07:25:50;;;;;;;4.07;0.60;;;18.70;99.90;;;;;;5017983;28;20034;-65
2022/07/14 07:28:15;;;;;;;3.13;0.73;;;18.70;99.90;;;;;;5022554;28;20052;-65
2022/07/14 07:30:41;;;;;;;4.18;0.95;;;18.70;99.90;;;;;;5012486;28;20041;-65
2022/07/14 07:33:08;;;;;;;5.32;0.90;;;18.70;99.90;;;;;;5035161;28;20073;-65
2022/07/14 07:35:33;;;;;;;5.82;0.85;;;18.70;99.90;;;;;;5035682;28;20116;-65
2022/07/14 07:37:59;;;;;;;12.55;2.42;;;18.60;99.90;;;;;;5050599;28;20141;-65
2022/07/14 07:40:25;;;;;;;5.57;0.70;;;18.50;99.90;;;;;;5033792;28;20419;-65
2022/07/14 07:42:50;;;;;;;4.95;0.63;;;19.80;99.90;;;;;;5017819;28;20054;-65
2022/07/14 07:45:16;;;;;;;5.55;0.90;;;18.50;99.90;;;;;;5015600;28;20091;-65
2022/07/14 07:47:42;;;;;;;5.32;1.10;;;18.40;99.90;;;;;;5014093;28;20377;-65
2022/07/14 07:50:08;;;;;;;6.25;0.70;;;18.30;99.90;;;;;;5021275;28;20040;-65
2022/07/14 07:52:34;;;;;;;5.28;0.93;;;18.40;99.90;;;;;;5035206;28;20041;-65
2022/07/14 07:55:00;;;;;;;4.53;0.68;;;18.50;99.90;;;;;;5030835;28;20562;-65
2022/07/14 07:57:26;;;;;;;5.75;0.80;;;18.50;99.90;;;;;;5025513;28;20092;-65
2022/07/14 07:59:51;;;;;;;3.97;0.70;;;18.40;99.90;;;;;;5019112;28;20121;-65
2022/07/14 08:02:24;;;;;;;6.18;0.75;;;18.60;99.90;;;;;;5023318;28;20140;-65
2022/07/14 08:04:50;;;;;;;1.70;0.50;;;18.60;99.90;;;;;;5035377;28;20436;-65
2022/07/14 08:07:16;;;;;;;3.75;0.73;;;18.60;99.90;;;;;;5022164;28;20038;-65
2022/07/14 08:09:41;;;;;;;3.53;0.60;;;18.40;99.90;;;;;;5033302;28;20095;-65
2022/07/14 08:12:07;;;;;;;3.42;0.60;;;18.30;99.90;;;;;;5033438;28;20034;-65
2022/07/14 08:14:47;;;;;;;4.40;0.55;;;18.60;99.90;;;;;;5034817;28;20395;-65
2022/07/14 08:17:13;;;;;;;5.50;0.60;;;18.30;99.90;;;;;;5034444;28;20121;-65
2022/07/14 08:19:39;;;;;;;3.00;0.60;;;18.70;99.90;;;;;;5023639;28;20109;-65
2022/07/14 08:22:05;;;;;;;1.77;0.50;;;18.60;99.90;;;;;;5031735;28;20043;-65
2022/07/14 08:24:31;;;;;;;5.65;0.98;;;18.60;99.90;;;;;;5025671;28;20514;-65
2022/07/14 08:26:57;;;;;;;6.07;0.85;;;18.70;99.90;;;;;;5015032;28;20048;-65
2022/07/14 08:29:22;;;;;;;3.08;0.57;;;18.90;99.90;;;;;;5028540;28;20026;-65
2022/07/14 08:31:49;;;;;;;4.10;0.57;;;18.70;99.90;;;;;;5023776;28;20125;-65
2022/07/14 08:34:14;;;;;;;1.95;0.50;;;18.70;99.90;;;;;;5034506;28;20124;-65
2022/07/14 08:36:40;;;;;;;3.20;0.50;;;18.90;99.90;;;;;;5032882;28;20083;-65
2022/07/14 08:39:06;;;;;;;2.08;0.55;;;18.90;99.90;;;;;;5019951;28;20443;-65
2022/07/14 08:41:36;;;;;;;3.47;0.40;;;19.00;99.90;;;;;;5018320;28;20053;-65
2022/07/14 08:44:03;;;;;;;2.75;0.60;;;18.70;99.90;;;;;;5020228;28;20092;-65
2022/07/14 08:46:31;;;;;;;4.63;0.40;;;18.90;99.90;;;;;;5026511;28;20040;-65
2022/07/14 08:48:56;;;;;;;5.35;0.80;;;18.80;99.90;;;;;;5023739;28;20488;-65
2022/07/14 08:51:24;;;;;;;1.67;0.50;;;19.20;99.90;;;;;;5016500;28;20030;-65
2022/07/14 08:53:49;;;;;;;5.43;0.40;;;19.10;99.90;;;;;;5024426;28;20038;-65
2022/07/14 08:56:15;;;;;;;5.32;0.60;;;19.00;99.90;;;;;;5014634;28;20169;-65
2022/07/14 08:58:41;;;;;;;4.65;0.60;;;19.20;99.90;;;;;;5027572;28;20041;-64
2022/07/14 09:01:07;;;;;;;4.43;0.70;;;19.30;99.90;;;;;;5012753;28;20052;-65
2022/07/14 09:03:33;;;;;;;2.78;0.77;;;19.40;99.90;;;;;;5030924;28;20140;-65
2022/07/14 09:05:59;;;;;;;3.17;0.57;;;19.10;99.90;;;;;;5033570;28;20108;-64
2022/07/14 09:08:25;;;;;;;5.88;0.75;;;19.40;99.90;;;;;;5032418;28;20040;-65
2022/07/14 09:10:50;;;;;;;2.83;0.22;;;19.70;99.90;;;;;;5025340;28;20033;-65
2022/07/14 09:13:21;;;;;;;5.15;0.50;;;19.40;99.90;;;;;;5013734;28;20052;-65
2022/07/14 09:15:48;;;;;;;1.80;0.30;;;19.40;99.90;;;;;;5020937;28;20037;-65
2022/07/14 09:18:25;;;;;;;2.83;0.35;;;19.60;99.90;;;;;;5019978;28;20046;-64
2022/07/14 09:20:54;;;;;;;4.95;0.50;;;19.50;99.90;;;;;;5001032;28;20484;-65
2022/07/14 09:23:30;;;;;;;2.72;0.40;;;19.50;99.90;;;;;;5025755;28;20041;-65
2022/07/14 09:26:16;;;;;;;3.08;0.57;;;19.50;99.90;;;;;;5010549;28;20033;-65
2022/07/14 09:28:44;;;;;;;2.45;0.47;;;19.90;99.90;;;;;;5025241;28;20108;-65
2022/07/14 09:31:21;;;;;;;2.08;0.40;;;19.70;99.90;;;;;;5019194;28;20041;-65
2022/07/14 09:33:52;;;;;;;2.55;0.40;;;20.00;99.90;;;;;;5032373;28;20037;-65
2022/07/14 09:36:29;;;;;;;2.47;0.50;;;19.90;99.90;;;;;;5015214;28;20088;-64
2022/07/14 09:39:05;;;;;;;2.72;0.55;;;19.70;99.90;;;;;;5024568;28;20080;-65
2022/07/14 09:41:53;;;;;;;3.85;0.40;;;20.00;99.90;;;;;;5014150;28;20048;-65
2022/07/14 09:44:20;;;;;;;3.03;0.98;;;19.80;99.90;;;;;;5026834;28;20422;-65
2022/07/14 09:46:47;;;;;;;4.05;0.35;;;20.00;99.90;;;;;;5018249;28;20041;-65
2022/07/14 09:49:13;;;;;;;4.95;0.82;;;19.90;99.90;;;;;;5019138;28;20121;-65
2022/07/14 09:51:53;;;;;;;6.40;0.70;;;19.90;99.90;;;;;;5013091;28;20472;-65
2022/07/14 09:54:37;;;;;;;2.08;0.30;;;19.90;99.90;;;;;;5025601;28;20167;-65
2022/07/14 09:57:06;;;;;;;2.28;0.50;;;19.90;99.90;;;;;;5007592;28;20376;-65
2022/07/14 09:59:42;;;;;;;4.28;1.40;;;19.80;99.90;;;;;;5019340;28;20053;-65
2022/07/14 10:02:14;;;;;;;3.17;0.30;;;19.60;99.90;;;;;;5019903;28;20112;-65
2022/07/14 10:04:40;;;;;;;2.65;0.35;;;19.80;99.90;;;;;;5019217;28;20030;-65
2022/07/14 10:07:06;;;;;;;3.00;0.40;;;19.80;99.90;;;;;;5018484;28;20427;-64
2022/07/14 10:09:32;;;;;;;4.20;0.30;;;19.70;99.90;;;;;;5032760;28;20099;-65
2022/07/14 10:12:00;;;;;;;3.80;0.82;;;19.90;99.90;;;;;;5032569;28;20041;-65
2022/07/14 10:14:26;;;;;;;5.32;0.50;;;19.80;99.90;;;;;;5021601;28;20369;-65
2022/07/14 10:16:52;;;;;;;1.92;0.40;;;19.90;99.90;;;;;;5026350;28;20048;-65
2022/07/14 10:19:19;;;;;;;3.05;0.50;;;19.80;99.90;;;;;;5013060;28;20038;-65
2022/07/14 10:21:46;;;;;;;2.60;0.35;;;20.00;99.90;;;;;;5026765;28;20049;-65
2022/07/14 10:24:13;;;;;;;1.88;0.50;;;19.90;99.90;;;;;;5015496;28;20509;-65
2022/07/14 10:26:38;;;;;;;3.65;0.55;;;19.90;99.90;;;;;;5012711;28;20048;-65
2022/07/14 10:29:05;;;;;;;4.30;0.60;;;20.10;99.90;;;;;;5025168;28;20041;-65
2022/07/14 10:32:05;;;;;;;4.63;0.70;;;19.90;99.90;;;;;;5011687;28;20046;-65
2022/07/14 10:34:52;;;;;;;5.30;0.70;;;20.10;99.90;;;;;;5029066;28;20037;-65
2022/07/14 10:37:32;;;;;;;1.52;0.50;;;20.20;99.90;;;;;;5030944;28;20124;-65
2022/07/14 10:40:01;;;;;;;2.65;0.40;;;20.10;99.90;;;;;;5004358;28;20088;-65
2022/07/14 10:42:59;;;;;;;3.33;0.70;;;20.10;99.90;;;;;;5018494;28;20049;-65
2022/07/14 10:45:26;;;;;;;3.58;0.73;;;20.20;99.90;;;;;;4996165;28;20389;-65
2022/07/14 10:47:53;;;;;;;6.22;1.35;;;20.00;99.90;;;;;;5027250;28;20053;-65
2022/07/14 10:50:23;;;;;;;3.80;0.40;;;20.10;99.90;;;;;;5023435;28;20048;-65
2022/07/14 10:52:55;;;;;;;4.35;0.55;;;20.10;99.90;;;;;;5012584;28;20049;-64
2022/07/14 10:55:22;;;;;;;3.30;0.40;;;19.90;99.90;;;;;;5032579;28;20044;-65
2022/07/14 10:58:04;;;;;;;4.40;0.47;;;20.30;99.90;;;;;;5047550;28;20060;-65
2022/07/14 11:00:39;;;;;;;3.42;0.32;;;20.00;99.90;;;;;;4998641;28;20053;-65
2022/07/14 11:03:16;;;;;;;;;;;20.20;99.90;;;;;;5027050;28;20048;-65
2022/07/14 11:06:00;;;;;;;4.13;0.50;;;20.20;99.90;;;;;;5022804;28;19921;-65
2022/07/14 11:08:27;;;;;;;5.40;0.30;;;20.30;99.90;;;;;;5015002;28;20050;-65
2022/07/14 11:10:54;;;;;;;3.58;0.50;;;20.00;99.90;;;;;;5024566;28;20553;-65
2022/07/14 11:13:20;;;;;;;2.28;0.88;;;20.30;99.90;;;;;;5033836;28;20099;-65
2022/07/14 11:15:53;;;;;;;2.05;0.40;;;20.30;99.90;;;;;;5016137;28;20492;-65
2022/07/14 11:18:18;;;;;;;3.10;0.60;;;20.10;99.90;;;;;;5014688;28;20042;-65
2022/07/14 11:20:53;;;;;;;5.43;0.75;;;20.00;99.90;;;;;;5016524;28;20040;-65
2022/07/14 11:23:21;;;;;;;3.85;0.50;;;20.10;99.90;;;;;;5016100;28;20042;-65
2022/07/14 11:25:49;;;;;;;6.07;0.90;;;20.40;99.90;;;;;;5017402;28;20060;-65
2022/07/14 11:28:47;;;;;;;2.22;0.50;;;20.30;99.90;;;;;;5035920;28;20033;-65
2022/07/14 11:31:19;;;;;;;5.75;0.70;;;20.10;99.90;;;;;;5020593;28;20056;-65
2022/07/14 11:36:44;;;;;;;;;;;20.30;99.90;;;;;;5023448;28;20128;-65
2022/07/14 11:39:16;;;;;;;6.43;0.40;;;20.20;99.90;;;;;;5021751;28;19925;-65
2022/07/14 11:42:02;;;;;;;5.45;0.90;;;20.20;99.90;;;;;;5001179;28;20053;-65
2022/07/14 11:44:33;;;;;;;2.05;0.40;;;20.50;99.90;;;;;;5029684;28;20110;-65
2022/07/14 11:47:00;;;;;;;2.75;0.47;;;20.40;99.90;;;;;;5023512;28;20464;-65
2022/07/14 11:49:26;;;;;;;2.90;0.40;;;20.50;99.90;;;;;;5034968;28;20033;-65
2022/07/14 11:51:53;;;;;;;4.95;0.50;;;20.60;99.90;;;;;;5014248;28;20488;-65
2022/07/14 11:54:21;;;;;;;3.95;0.50;;;20.60;99.90;;;;;;5015338;28;20038;-65
2022/07/14 11:56:48;;;;;;;3.45;0.57;;;21.10;99.90;;;;;;5028821;28;20042;-65
2022/07/14 11:59:18;;;;;;;2.20;0.30;;;21.00;99.90;;;;;;5026002;28;20096;-64
2022/07/14 12:01:44;;;;;;;2.92;0.40;;;20.90;99.90;;;;;;5046405;28;20518;-65
2022/07/14 12:04:12;;;;;;;3.97;0.40;;;20.80;99.90;;;;;;5015440;28;20040;-65
2022/07/14 12:06:40;;;;;;;2.50;0.82;;;22.10;99.90;;;;;;5016776;28;20077;-64
2022/07/14 12:09:06;;;;;;;4.32;0.50;;;21.10;99.90;;;;;;5026471;28;20030;-64
2022/07/14 12:11:31;;;;;;;4.53;0.50;;;21.20;99.90;;;;;;5014943;28;20120;-64
2022/07/14 12:13:59;;;;;;;5.80;0.60;;;21.30;99.90;;;;;;5035141;28;20033;-65
2022/07/14 12:16:24;;;;;;;3.50;0.65;;;21.00;99.90;;;;;;5022433;28;20496;-65
2022/07/14 12:18:54;;;;;;;3.53;0.45;;;20.90;99.90;;;;;;5033296;28;20030;-65
2022/07/14 12:21:34;;;;;;;4.30;0.77;;;21.00;99.90;;;;;;5013650;28;20476;-65
2022/07/14 12:24:00;;;;;;;1.85;0.30;;;20.80;99.90;;;;;;5027062;28;20491;-65
2022/07/14 12:26:26;;;;;;;2.95;0.32;;;21.10;99.90;;;;;;5015036;28;20030;-64
2022/07/14 12:28:55;;;;;;;2.78;0.40;;;20.50;99.90;;;;;;4997539;28;20408;-65
2022/07/14 12:31:22;;;;;;;3.08;0.60;;;20.60;99.90;;;;;;5018712;28;20037;-65
2022/07/14 12:33:49;;;;;;;2.53;0.50;;;20.50;99.90;;;;;;5034555;28;20037;-65
2022/07/14 12:36:18;;;;;;;2.97;0.47;;;20.60;99.90;;;;;;5032781;28;20072;-65
2022/07/14 12:38:45;;;;;;;1.73;0.30;;;22.40;99.90;;;;;;5034731;28;20107;-65
2022/07/14 12:41:13;;;;;;;3.25;0.40;;;20.50;99.90;;;;;;5020193;28;20054;-65
2022/07/14 12:43:41;;;;;;;0.95;0.47;;;21.00;99.90;;;;;;5033059;28;20077;-65
2022/07/14 12:46:08;;;;;;;4.00;1.83;;;20.90;99.90;;;;;;5020333;28;20046;-65
2022/07/14 12:48:58;;;;;;;1.42;0.40;;;21.10;99.90;;;;;;5027140;28;20038;-65
2022/07/14 12:51:31;;;;;;;3.38;0.20;;;21.40;99.90;;;;;;5022557;28;20060;-65
2022/07/14 12:54:09;;;;;;;3.38;0.50;;;21.30;99.90;;;;;;5033239;28;20099;-65
2022/07/14 12:56:53;;;;;;;1.63;0.30;;;21.20;99.90;;;;;;5017135;28;20044;-65
2022/07/14 12:59:19;;;;;;;3.28;0.80;;;21.30;99.90;;;;;;5025765;28;20041;-65
2022/07/14 13:01:57;;;;;;;3.13;0.63;;;21.00;99.90;;;;;;5029947;28;20543;-65
2022/07/14 13:04:36;;;;;;;2.90;0.50;;;21.40;99.90;;;;;;5014433;28;20037;-65